sensor_id;sensor_type;location;lat;lon;timestamp;temperature;humidity
3778;DHT22;1904;50.076;8.660;2022-07-23T00:00:57;22.20;1.00
3778;DHT22;1904;50.076;8.660;2022-07-23T00:03:27;22.20;1.00
3778;DHT22;1904;50.076;8.660;2022-07-23T00:06:03;22.10;1.00
3778;DHT22;1904;50.076;8.660;2022-07-23T00:08:28;22.10;1.00
3778;DHT22;1904;50.076;8.660;2022-07-23T00:11:03;22.00;1.00
3778;DHT22;1904;50.076;8.660;2022-07-23T00:13:33;21.90;1.00
3778;DHT22;1904;50.076;8.660;2022-07-23T00:16:32;21.90;1.00
3778;DHT22;1904;50.076;8.660;2022-07-23T00:18:58;21.80;1.00
3778;DHT22;1904;50.076;8.660;2022-07-23T00:21:27;21.70;1.00
3778;DHT22;1904;50.076;8.660;2022-07-23T00:23:57;21.70;1.00
3778;DHT22;1904;50.076;8.660;2022-07-23T00:26:27;21.60;1.00
3778;DHT22;1904;50.076;8.660;2022-07-23T00:28:57;21.50;1.00
3778;DHT22;1904;50.076;8.660;2022-07-23T00:31:33;21.50;1.00
3778;DHT22;1904;50.076;8.660;2022-07-23T00:33:59;21.50;1.00
3778;DHT22;1904;50.076;8.660;2022-07-23T00:36:27;21.50;1.00
3778;DHT22;1904;50.076;8.660;2022-07-23T00:38:53;21.50;1.00
3778;DHT22;1904;50.076;8.660;2022-07-23T00:41:19;21.40;1.00
3778;DHT22;1904;50.076;8.660;2022-07-23T00:43:45;21.50;1.00
3778;DHT22;1904;50.076;8.660;2022-07-23T00:46:11;21.50;1.00
3778;DHT22;1904;50.076;8.660;2022-07-23T00:48:51;21.40;1.00
3778;DHT22;1904;50.076;8.660;2022-07-23T00:51:21;21.40;1.00
3778;DHT22;1904;50.076;8.660;2022-07-23T00:53:57;21.30;1.00
3778;DHT22;1904;50.076;8.660;2022-07-23T00:56:33;21.30;1.00
3778;DHT22;1904;50.076;8.660;2022-07-23T00:59:00;21.20;1.00
3778;DHT22;1904;50.076;8.660;2022-07-23T01:01:39;21.20;1.00
3778;DHT22;1904;50.076;8.660;2022-07-23T01:04:05;21.10;1.00
3778;DHT22;1904;50.076;8.660;2022-07-23T01:06:36;21.10;1.00
3778;DHT22;1904;50.076;8.660;2022-07-23T01:09:04;21.00;1.00
3778;DHT22;1904;50.076;8.660;2022-07-23T01:11:31;21.00;1.00
3778;DHT22;1904;50.076;8.660;2022-07-23T01:13:57;20.90;1.00
3778;DHT22;1904;50.076;8.660;2022-07-23T01:16:22;20.90;1.00
3778;DHT22;1904;50.076;8.660;2022-07-23T01:18:48;20.90;1.00
3778;DHT22;1904;50.076;8.660;2022-07-23T01:21:18;20.90;1.00
3778;DHT22;1904;50.076;8.660;2022-07-23T01:23:51;20.90;1.00
3778;DHT22;1904;50.076;8.660;2022-07-23T01:26:21;21.00;1.00
3778;DHT22;1904;50.076;8.660;2022-07-23T01:28:51;20.90;1.00
3778;DHT22;1904;50.076;8.660;2022-07-23T01:31:21;21.00;1.00
3778;DHT22;1904;50.076;8.660;2022-07-23T01:33:57;21.00;1.00
3778;DHT22;1904;50.076;8.660;2022-07-23T01:36:34;21.00;1.00
3778;DHT22;1904;50.076;8.660;2022-07-23T01:39:00;21.10;1.00
3778;DHT22;1904;50.076;8.660;2022-07-23T01:41:27;21.10;1.00
3778;DHT22;1904;50.076;8.660;2022-07-23T01:44:20;21.10;1.00
3778;DHT22;1904;50.076;8.660;2022-07-23T01:47:20;21.10;1.00
3778;DHT22;1904;50.076;8.660;2022-07-23T01:49:57;21.10;1.00
3778;DHT22;1904;50.076;8.660;2022-07-23T01:52:33;21.10;1.00
3778;DHT22;1904;50.076;8.660;2022-07-23T01:55:03;21.00;1.00
3778;DHT22;1904;50.076;8.660;2022-07-23T01:57:33;21.00;1.00
3778;DHT22;1904;50.076;8.660;2022-07-23T02:00:03;21.00;1.00
3778;DHT22;1904;50.076;8.660;2022-07-23T02:02:39;20.90;1.00
3778;DHT22;1904;50.076;8.660;2022-07-23T02:05:05;20.90;1.00
3778;DHT22;1904;50.076;8.660;2022-07-23T02:07:33;20.80;1.00
3778;DHT22;1904;50.076;8.660;2022-07-23T02:10:21;20.90;1.00
3778;DHT22;1904;50.076;8.660;2022-07-23T02:12:51;20.90;1.00
3778;DHT22;1904;50.076;8.660;2022-07-23T02:15:21;20.90;1.00
3778;DHT22;1904;50.076;8.660;2022-07-23T02:17:46;20.90;1.00
3778;DHT22;1904;50.076;8.660;2022-07-23T02:20:15;20.80;1.00
3778;DHT22;1904;50.076;8.660;2022-07-23T02:22:41;20.80;1.00
3778;DHT22;1904;50.076;8.660;2022-07-23T02:25:09;20.70;1.00
3778;DHT22;1904;50.076;8.660;2022-07-23T02:27:51;20.70;1.00
3778;DHT22;1904;50.076;8.660;2022-07-23T02:30:21;20.60;1.00
3778;DHT22;1904;50.076;8.660;2022-07-23T02:33:03;20.60;1.00
3778;DHT22;1904;50.076;8.660;2022-07-23T02:35:29;20.50;1.00
3778;DHT22;1904;50.076;8.660;2022-07-23T02:37:57;20.40;1.00
3778;DHT22;1904;50.076;8.660;2022-07-23T02:40:27;20.40;1.00
3778;DHT22;1904;50.076;8.660;2022-07-23T02:42:53;20.40;1.00
3778;DHT22;1904;50.076;8.660;2022-07-23T02:45:18;20.40;1.00
3778;DHT22;1904;50.076;8.660;2022-07-23T02:47:44;20.40;1.00
3778;DHT22;1904;50.076;8.660;2022-07-23T02:50:15;20.40;1.00
3778;DHT22;1904;50.076;8.660;2022-07-23T02:55:51;20.40;1.00
3778;DHT22;1904;50.076;8.660;2022-07-23T02:58:21;20.40;1.00
3778;DHT22;1904;50.076;8.660;2022-07-23T03:01:20;20.40;1.00
3778;DHT22;1904;50.076;8.660;2022-07-23T03:03:51;20.40;1.00
3778;DHT22;1904;50.076;8.660;2022-07-23T03:06:27;20.40;1.00
3778;DHT22;1904;50.076;8.660;2022-07-23T03:08:57;20.40;1.00
3778;DHT22;1904;50.076;8.660;2022-07-23T03:11:27;20.40;1.00
3778;DHT22;1904;50.076;8.660;2022-07-23T03:13:57;20.40;1.00
3778;DHT22;1904;50.076;8.660;2022-07-23T03:16:33;20.40;1.00
3778;DHT22;1904;50.076;8.660;2022-07-23T03:18:59;20.40;1.00
3778;DHT22;1904;50.076;8.660;2022-07-23T03:21:33;20.40;1.00
3778;DHT22;1904;50.076;8.660;2022-07-23T03:24:20;20.40;1.00
3778;DHT22;1904;50.076;8.660;2022-07-23T03:27:03;20.40;1.00
3778;DHT22;1904;50.076;8.660;2022-07-23T03:29:51;20.30;1.00
3778;DHT22;1904;50.076;8.660;2022-07-23T03:32:21;20.30;1.00
3778;DHT22;1904;50.076;8.660;2022-07-23T03:34:47;20.30;1.00
3778;DHT22;1904;50.076;8.660;2022-07-23T03:37:13;20.30;1.00
3778;DHT22;1904;50.076;8.660;2022-07-23T03:39:57;20.30;1.00
3778;DHT22;1904;50.076;8.660;2022-07-23T03:42:22;20.30;1.00
3778;DHT22;1904;50.076;8.660;2022-07-23T03:44:57;20.30;1.00
3778;DHT22;1904;50.076;8.660;2022-07-23T03:47:27;20.30;1.00
3778;DHT22;1904;50.076;8.660;2022-07-23T03:49:52;20.30;1.00
3778;DHT22;1904;50.076;8.660;2022-07-23T03:52:21;20.30;1.00
3778;DHT22;1904;50.076;8.660;2022-07-23T03:54:47;20.40;1.00
3778;DHT22;1904;50.076;8.660;2022-07-23T03:57:13;20.40;1.00
3778;DHT22;1904;50.076;8.660;2022-07-23T03:59:39;20.40;1.00
3778;DHT22;1904;50.076;8.660;2022-07-23T04:02:15;20.40;1.00
3778;DHT22;1904;50.076;8.660;2022-07-23T04:04:51;20.40;1.00
3778;DHT22;1904;50.076;8.660;2022-07-23T04:07:21;20.40;1.00
3778;DHT22;1904;50.076;8.660;2022-07-23T04:09:51;20.40;1.00
3778;DHT22;1904;50.076;8.660;2022-07-23T04:12:33;20.40;1.00
3778;DHT22;1904;50.076;8.660;2022-07-23T04:15:09;20.50;1.00
3778;DHT22;1904;50.076;8.660;2022-07-23T04:17:51;20.50;1.00
3778;DHT22;1904;50.076;8.660;2022-07-23T04:20:27;20.50;1.00
3778;DHT22;1904;50.076;8.660;2022-07-23T04:22:52;20.50;1.00
3778;DHT22;1904;50.076;8.660;2022-07-23T04:25:18;20.50;1.00
3778;DHT22;1904;50.076;8.660;2022-07-23T04:27:44;20.50;1.00
3778;DHT22;1904;50.076;8.660;2022-07-23T04:30:10;20.50;1.00
3778;DHT22;1904;50.076;8.660;2022-07-23T04:32:35;20.50;1.00
3778;DHT22;1904;50.076;8.660;2022-07-23T04:35:01;20.50;1.00
3778;DHT22;1904;50.076;8.660;2022-07-23T04:37:27;20.50;1.00
3778;DHT22;1904;50.076;8.660;2022-07-23T04:39:53;20.40;1.00
3778;DHT22;1904;50.076;8.660;2022-07-23T04:42:21;20.50;1.00
3778;DHT22;1904;50.076;8.660;2022-07-23T04:44:51;20.40;1.00
3778;DHT22;1904;50.076;8.660;2022-07-23T04:47:22;20.50;1.00
3778;DHT22;1904;50.076;8.660;2022-07-23T04:49:47;20.50;1.00
3778;DHT22;1904;50.076;8.660;2022-07-23T04:52:21;20.50;1.00
3778;DHT22;1904;50.076;8.660;2022-07-23T04:54:51;20.60;1.00
3778;DHT22;1904;50.076;8.660;2022-07-23T04:57:21;20.70;1.00
3778;DHT22;1904;50.076;8.660;2022-07-23T04:59:51;20.80;1.00
3778;DHT22;1904;50.076;8.660;2022-07-23T05:02:38;20.90;1.00
3778;DHT22;1904;50.076;8.660;2022-07-23T05:05:15;21.00;1.00
3778;DHT22;1904;50.076;8.660;2022-07-23T05:07:51;21.10;1.00
3778;DHT22;1904;50.076;8.660;2022-07-23T05:10:21;21.20;1.00
3778;DHT22;1904;50.076;8.660;2022-07-23T05:12:47;21.20;1.00
3778;DHT22;1904;50.076;8.660;2022-07-23T05:15:15;21.30;1.00
3778;DHT22;1904;50.076;8.660;2022-07-23T05:17:45;21.20;1.00
3778;DHT22;1904;50.076;8.660;2022-07-23T05:20:27;21.20;1.00
3778;DHT22;1904;50.076;8.660;2022-07-23T05:22:57;21.20;1.00
3778;DHT22;1904;50.076;8.660;2022-07-23T05:25:56;21.20;1.00
3778;DHT22;1904;50.076;8.660;2022-07-23T05:28:22;21.30;1.00
3778;DHT22;1904;50.076;8.660;2022-07-23T05:30:51;21.20;1.00
3778;DHT22;1904;50.076;8.660;2022-07-23T05:33:20;21.20;1.00
3778;DHT22;1904;50.076;8.660;2022-07-23T05:35:45;21.20;1.00
3778;DHT22;1904;50.076;8.660;2022-07-23T05:38:15;21.30;1.00
3778;DHT22;1904;50.076;8.660;2022-07-23T05:40:41;21.40;1.00
3778;DHT22;1904;50.076;8.660;2022-07-23T05:43:09;21.40;1.00
3778;DHT22;1904;50.076;8.660;2022-07-23T05:45:45;21.50;1.00
3778;DHT22;1904;50.076;8.660;2022-07-23T05:48:15;21.60;1.00
3778;DHT22;1904;50.076;8.660;2022-07-23T05:50:46;21.60;1.00
3778;DHT22;1904;50.076;8.660;2022-07-23T05:53:12;21.60;1.00
3778;DHT22;1904;50.076;8.660;2022-07-23T05:55:38;21.60;1.00
3778;DHT22;1904;50.076;8.660;2022-07-23T05:58:09;21.60;1.00
3778;DHT22;1904;50.076;8.660;2022-07-23T06:00:39;21.60;1.00
3778;DHT22;1904;50.076;8.660;2022-07-23T06:03:09;21.70;1.00
3778;DHT22;1904;50.076;8.660;2022-07-23T06:05:39;21.70;1.00
3778;DHT22;1904;50.076;8.660;2022-07-23T06:08:09;21.70;1.00
3778;DHT22;1904;50.076;8.660;2022-07-23T06:10:39;21.70;1.00
3778;DHT22;1904;50.076;8.660;2022-07-23T06:13:09;21.60;1.00
3778;DHT22;1904;50.076;8.660;2022-07-23T06:15:45;21.60;1.00
3778;DHT22;1904;50.076;8.660;2022-07-23T06:18:15;21.50;1.00
3778;DHT22;1904;50.076;8.660;2022-07-23T06:21:03;21.60;1.00
3778;DHT22;1904;50.076;8.660;2022-07-23T06:23:33;21.60;1.00
3778;DHT22;1904;50.076;8.660;2022-07-23T06:25:59;21.60;1.00
3778;DHT22;1904;50.076;8.660;2022-07-23T06:28:27;21.60;1.00
3778;DHT22;1904;50.076;8.660;2022-07-23T06:31:03;21.70;1.00
3778;DHT22;1904;50.076;8.660;2022-07-23T06:33:33;21.70;1.00
3778;DHT22;1904;50.076;8.660;2022-07-23T06:36:09;21.80;1.00
3778;DHT22;1904;50.076;8.660;2022-07-23T06:38:35;21.90;1.00
3778;DHT22;1904;50.076;8.660;2022-07-23T06:41:03;22.00;1.00
3778;DHT22;1904;50.076;8.660;2022-07-23T06:43:30;22.00;1.00
3778;DHT22;1904;50.076;8.660;2022-07-23T06:45:56;22.10;1.00
3778;DHT22;1904;50.076;8.660;2022-07-23T06:48:27;22.20;1.00
3778;DHT22;1904;50.076;8.660;2022-07-23T06:54:04;22.40;1.00
3778;DHT22;1904;50.076;8.660;2022-07-23T06:56:50;22.60;1.00
3778;DHT22;1904;50.076;8.660;2022-07-23T06:59:16;22.70;1.00
3778;DHT22;1904;50.076;8.660;2022-07-23T07:01:42;22.80;1.00
3778;DHT22;1904;50.076;8.660;2022-07-23T07:04:09;23.00;1.00
3778;DHT22;1904;50.076;8.660;2022-07-23T07:06:45;23.10;1.00
3778;DHT22;1904;50.076;8.660;2022-07-23T07:09:15;23.40;1.00
3778;DHT22;1904;50.076;8.660;2022-07-23T07:11:51;23.50;1.00
3778;DHT22;1904;50.076;8.660;2022-07-23T07:14:17;23.50;1.00
3778;DHT22;1904;50.076;8.660;2022-07-23T07:16:51;23.60;1.00
3778;DHT22;1904;50.076;8.660;2022-07-23T07:19:33;23.70;1.00
3778;DHT22;1904;50.076;8.660;2022-07-23T07:25:05;24.00;1.00
3778;DHT22;1904;50.076;8.660;2022-07-23T07:27:31;24.20;1.00
3778;DHT22;1904;50.076;8.660;2022-07-23T07:29:57;24.40;1.00
3778;DHT22;1904;50.076;8.660;2022-07-23T07:32:39;24.50;1.00
3778;DHT22;1904;50.076;8.660;2022-07-23T07:35:06;24.60;1.00
3778;DHT22;1904;50.076;8.660;2022-07-23T07:37:32;24.70;1.00
3778;DHT22;1904;50.076;8.660;2022-07-23T07:40:26;24.80;1.00
3778;DHT22;1904;50.076;8.660;2022-07-23T07:46:38;24.50;1.00
3778;DHT22;1904;50.076;8.660;2022-07-23T07:52:15;24.50;1.00
3778;DHT22;1904;50.076;8.660;2022-07-23T07:54:45;24.50;1.00
3778;DHT22;1904;50.076;8.660;2022-07-23T07:57:21;24.60;1.00
3778;DHT22;1904;50.076;8.660;2022-07-23T08:00:05;24.60;1.00
3778;DHT22;1904;50.076;8.660;2022-07-23T08:06:08;24.70;1.00
3778;DHT22;1904;50.076;8.660;2022-07-23T08:08:45;24.70;1.00
3778;DHT22;1904;50.076;8.660;2022-07-23T08:18:09;25.10;1.00
3778;DHT22;1904;50.076;8.660;2022-07-23T08:20:45;25.30;1.00
3778;DHT22;1904;50.076;8.660;2022-07-23T08:23:15;25.60;1.00
3778;DHT22;1904;50.076;8.660;2022-07-23T08:25:45;25.80;1.00
3778;DHT22;1904;50.076;8.660;2022-07-23T08:28:21;26.00;1.00
3778;DHT22;1904;50.076;8.660;2022-07-23T08:31:03;26.20;1.00
3778;DHT22;1904;50.076;8.660;2022-07-23T08:33:31;26.20;1.00
3778;DHT22;1904;50.076;8.660;2022-07-23T08:36:09;26.10;1.00
3778;DHT22;1904;50.076;8.660;2022-07-23T08:38:51;26.10;1.00
3778;DHT22;1904;50.076;8.660;2022-07-23T08:41:21;26.20;1.00
3778;DHT22;1904;50.076;8.660;2022-07-23T08:43:57;26.20;1.00
3778;DHT22;1904;50.076;8.660;2022-07-23T08:46:26;26.40;1.00
3778;DHT22;1904;50.076;8.660;2022-07-23T08:48:57;26.30;1.00
3778;DHT22;1904;50.076;8.660;2022-07-23T08:51:26;26.30;1.00
3778;DHT22;1904;50.076;8.660;2022-07-23T08:53:57;26.20;1.00
3778;DHT22;1904;50.076;8.660;2022-07-23T08:56:27;26.20;1.00
3778;DHT22;1904;50.076;8.660;2022-07-23T08:58:56;26.40;1.00
3778;DHT22;1904;50.076;8.660;2022-07-23T09:01:22;26.50;1.00
3778;DHT22;1904;50.076;8.660;2022-07-23T09:04:03;26.60;1.00
3778;DHT22;1904;50.076;8.660;2022-07-23T09:06:50;26.50;1.00
3778;DHT22;1904;50.076;8.660;2022-07-23T09:09:20;26.40;1.00
3778;DHT22;1904;50.076;8.660;2022-07-23T09:12:04;26.50;1.00
3778;DHT22;1904;50.076;8.660;2022-07-23T09:14:44;26.20;1.00
3778;DHT22;1904;50.076;8.660;2022-07-23T09:21:08;26.40;1.00
3778;DHT22;1904;50.076;8.660;2022-07-23T09:24:06;26.70;1.00
3778;DHT22;1904;50.076;8.660;2022-07-23T09:26:51;27.00;1.00
3778;DHT22;1904;50.076;8.660;2022-07-23T09:29:17;27.10;1.00
3778;DHT22;1904;50.076;8.660;2022-07-23T09:32:03;27.30;1.00
3778;DHT22;1904;50.076;8.660;2022-07-23T09:34:34;27.60;1.00
3778;DHT22;1904;50.076;8.660;2022-07-23T09:37:16;27.70;1.00
3778;DHT22;1904;50.076;8.660;2022-07-23T09:40:14;27.90;1.00
3778;DHT22;1904;50.076;8.660;2022-07-23T09:43:12;27.90;1.00
3778;DHT22;1904;50.076;8.660;2022-07-23T09:45:39;27.90;1.00
3778;DHT22;1904;50.076;8.660;2022-07-23T09:48:33;28.00;1.00
3778;DHT22;1904;50.076;8.660;2022-07-23T09:51:09;28.10;1.00
3778;DHT22;1904;50.076;8.660;2022-07-23T09:53:39;28.20;1.00
3778;DHT22;1904;50.076;8.660;2022-07-23T09:56:16;28.40;1.00
3778;DHT22;1904;50.076;8.660;2022-07-23T09:58:44;28.60;1.00
3778;DHT22;1904;50.076;8.660;2022-07-23T10:01:27;28.80;1.00
3778;DHT22;1904;50.076;8.660;2022-07-23T10:04:11;29.10;1.00
3778;DHT22;1904;50.076;8.660;2022-07-23T10:06:39;29.20;1.00
3778;DHT22;1904;50.076;8.660;2022-07-23T10:12:21;29.20;1.00
3778;DHT22;1904;50.076;8.660;2022-07-23T10:15:09;29.00;1.00
3778;DHT22;1904;50.076;8.660;2022-07-23T10:21:05;28.30;1.00
3778;DHT22;1904;50.076;8.660;2022-07-23T10:23:47;28.30;1.00
3778;DHT22;1904;50.076;8.660;2022-07-23T10:32:46;28.20;1.00
3778;DHT22;1904;50.076;8.660;2022-07-23T10:35:42;28.20;1.00
3778;DHT22;1904;50.076;8.660;2022-07-23T10:38:20;28.20;1.00
3778;DHT22;1904;50.076;8.660;2022-07-23T10:41:03;28.30;1.00
3778;DHT22;1904;50.076;8.660;2022-07-23T10:47:41;28.50;1.00
3778;DHT22;1904;50.076;8.660;2022-07-23T10:53:54;28.90;1.00
3778;DHT22;1904;50.076;8.660;2022-07-23T11:02:34;29.20;1.00
3778;DHT22;1904;50.076;8.660;2022-07-23T11:05:14;29.30;1.00
3778;DHT22;1904;50.076;8.660;2022-07-23T11:08:12;29.20;1.00
3778;DHT22;1904;50.076;8.660;2022-07-23T11:10:51;29.20;1.00
3778;DHT22;1904;50.076;8.660;2022-07-23T11:16:06;29.50;1.00
3778;DHT22;1904;50.076;8.660;2022-07-23T11:18:56;29.60;1.00
3778;DHT22;1904;50.076;8.660;2022-07-23T11:24:16;29.70;1.00
3778;DHT22;1904;50.076;8.660;2022-07-23T11:26:52;29.70;1.00
3778;DHT22;1904;50.076;8.660;2022-07-23T11:32:22;30.00;1.00
3778;DHT22;1904;50.076;8.660;2022-07-23T11:34:49;30.20;1.00
3778;DHT22;1904;50.076;8.660;2022-07-23T11:37:38;30.50;1.00
3778;DHT22;1904;50.076;8.660;2022-07-23T11:40:09;30.60;1.00
3778;DHT22;1904;50.076;8.660;2022-07-23T11:45:23;30.40;1.00
3778;DHT22;1904;50.076;8.660;2022-07-23T11:47:49;30.60;1.00
3778;DHT22;1904;50.076;8.660;2022-07-23T11:50:38;30.60;1.00
3778;DHT22;1904;50.076;8.660;2022-07-23T11:53:04;30.40;1.00
3778;DHT22;1904;50.076;8.660;2022-07-23T11:55:30;30.40;1.00
3778;DHT22;1904;50.076;8.660;2022-07-23T11:58:03;30.60;1.00
3778;DHT22;1904;50.076;8.660;2022-07-23T12:00:45;30.70;1.00
3778;DHT22;1904;50.076;8.660;2022-07-23T12:03:11;30.70;1.00
3778;DHT22;1904;50.076;8.660;2022-07-23T12:05:45;30.50;1.00
3778;DHT22;1904;50.076;8.660;2022-07-23T12:08:15;30.50;1.00
3778;DHT22;1904;50.076;8.660;2022-07-23T12:10:45;30.30;1.00
3778;DHT22;1904;50.076;8.660;2022-07-23T12:13:17;30.40;1.00
3778;DHT22;1904;50.076;8.660;2022-07-23T12:19:03;30.60;1.00
3778;DHT22;1904;50.076;8.660;2022-07-23T12:21:39;30.50;1.00
3778;DHT22;1904;50.076;8.660;2022-07-23T12:24:08;30.50;1.00
3778;DHT22;1904;50.076;8.660;2022-07-23T12:27:08;30.70;1.00
3778;DHT22;1904;50.076;8.660;2022-07-23T12:32:55;30.90;1.00
3778;DHT22;1904;50.076;8.660;2022-07-23T12:35:22;31.20;1.00
3778;DHT22;1904;50.076;8.660;2022-07-23T12:37:51;31.00;1.00
3778;DHT22;1904;50.076;8.660;2022-07-23T12:40:31;30.80;1.00
3778;DHT22;1904;50.076;8.660;2022-07-23T12:43:00;30.80;1.00
3778;DHT22;1904;50.076;8.660;2022-07-23T12:45:28;31.00;1.00
3778;DHT22;1904;50.076;8.660;2022-07-23T12:48:06;31.30;1.00
3778;DHT22;1904;50.076;8.660;2022-07-23T12:50:51;31.60;1.00
3778;DHT22;1904;50.076;8.660;2022-07-23T12:53:30;31.90;1.00
3778;DHT22;1904;50.076;8.660;2022-07-23T12:56:05;32.10;1.00
3778;DHT22;1904;50.076;8.660;2022-07-23T13:01:42;32.50;1.00
3778;DHT22;1904;50.076;8.660;2022-07-23T13:04:09;32.80;1.00
3778;DHT22;1904;50.076;8.660;2022-07-23T13:06:36;32.90;1.00
3778;DHT22;1904;50.076;8.660;2022-07-23T13:12:24;32.70;1.00
3778;DHT22;1904;50.076;8.660;2022-07-23T13:15:03;32.70;1.00
3778;DHT22;1904;50.076;8.660;2022-07-23T13:17:45;32.50;1.00
3778;DHT22;1904;50.076;8.660;2022-07-23T13:20:38;32.50;1.00
3778;DHT22;1904;50.076;8.660;2022-07-23T13:23:07;32.60;1.00
3778;DHT22;1904;50.076;8.660;2022-07-23T13:25:39;32.70;1.00
3778;DHT22;1904;50.076;8.660;2022-07-23T13:31:16;33.20;1.00
3778;DHT22;1904;50.076;8.660;2022-07-23T13:34:06;33.40;1.00
3778;DHT22;1904;50.076;8.660;2022-07-23T13:36:39;33.50;1.00
3778;DHT22;1904;50.076;8.660;2022-07-23T13:39:15;33.40;1.00
3778;DHT22;1904;50.076;8.660;2022-07-23T13:45:04;32.70;1.00
3778;DHT22;1904;50.076;8.660;2022-07-23T13:47:45;33.20;1.00
3778;DHT22;1904;50.076;8.660;2022-07-23T13:50:21;32.90;1.00
3778;DHT22;1904;50.076;8.660;2022-07-23T13:56:27;32.70;1.00
3778;DHT22;1904;50.076;8.660;2022-07-23T13:58:57;32.40;1.00
3778;DHT22;1904;50.076;8.660;2022-07-23T14:01:23;32.50;1.00
3778;DHT22;1904;50.076;8.660;2022-07-23T14:03:57;32.50;1.00
3778;DHT22;1904;50.076;8.660;2022-07-23T14:06:33;32.70;1.00
3778;DHT22;1904;50.076;8.660;2022-07-23T14:09:03;32.70;1.00
3778;DHT22;1904;50.076;8.660;2022-07-23T14:11:29;32.30;1.00
3778;DHT22;1904;50.076;8.660;2022-07-23T14:14:03;32.30;1.00
3778;DHT22;1904;50.076;8.660;2022-07-23T14:16:29;32.60;1.00
3778;DHT22;1904;50.076;8.660;2022-07-23T14:18:57;32.50;1.00
3778;DHT22;1904;50.076;8.660;2022-07-23T14:21:33;32.60;1.00
3778;DHT22;1904;50.076;8.660;2022-07-23T14:24:03;32.70;1.00
3778;DHT22;1904;50.076;8.660;2022-07-23T14:26:29;32.50;1.00
3778;DHT22;1904;50.076;8.660;2022-07-23T14:29:09;32.40;1.00
3778;DHT22;1904;50.076;8.660;2022-07-23T14:34:40;32.30;1.00
3778;DHT22;1904;50.076;8.660;2022-07-23T14:37:06;32.00;1.00
3778;DHT22;1904;50.076;8.660;2022-07-23T14:46:21;32.00;1.00
3778;DHT22;1904;50.076;8.660;2022-07-23T14:48:47;32.20;1.00
3778;DHT22;1904;50.076;8.660;2022-07-23T14:51:13;32.40;1.00
3778;DHT22;1904;50.076;8.660;2022-07-23T14:53:39;32.20;1.00
3778;DHT22;1904;50.076;8.660;2022-07-23T14:56:27;32.40;1.00
3778;DHT22;1904;50.076;8.660;2022-07-23T14:58:53;32.30;1.00
3778;DHT22;1904;50.076;8.660;2022-07-23T15:01:27;31.90;1.00
3778;DHT22;1904;50.076;8.660;2022-07-23T15:04:04;31.80;1.00
3778;DHT22;1904;50.076;8.660;2022-07-23T15:06:39;31.50;1.00
3778;DHT22;1904;50.076;8.660;2022-07-23T15:09:21;31.30;1.00
3778;DHT22;1904;50.076;8.660;2022-07-23T15:11:57;31.40;1.00
3778;DHT22;1904;50.076;8.660;2022-07-23T15:14:23;31.70;1.00
3778;DHT22;1904;50.076;8.660;2022-07-23T15:16:51;31.70;1.00
3778;DHT22;1904;50.076;8.660;2022-07-23T15:19:33;31.90;1.00
3778;DHT22;1904;50.076;8.660;2022-07-23T15:22:33;32.90;1.00
3778;DHT22;1904;50.076;8.660;2022-07-23T15:28:34;35.70;1.00
3778;DHT22;1904;50.076;8.660;2022-07-23T15:31:09;36.50;1.00
3778;DHT22;1904;50.076;8.660;2022-07-23T15:33:39;37.80;1.00
3778;DHT22;1904;50.076;8.660;2022-07-23T15:36:09;38.70;1.00
3778;DHT22;1904;50.076;8.660;2022-07-23T15:38:39;39.90;1.00
3778;DHT22;1904;50.076;8.660;2022-07-23T15:41:05;40.30;1.00
3778;DHT22;1904;50.076;8.660;2022-07-23T15:43:31;40.90;1.00
3778;DHT22;1904;50.076;8.660;2022-07-23T15:52:38;42.20;1.00
3778;DHT22;1904;50.076;8.660;2022-07-23T15:55:09;42.90;1.00
3778;DHT22;1904;50.076;8.660;2022-07-23T15:57:39;42.90;1.00
3778;DHT22;1904;50.076;8.660;2022-07-23T16:00:09;43.50;1.00
3778;DHT22;1904;50.076;8.660;2022-07-23T16:02:39;44.00;1.00
3778;DHT22;1904;50.076;8.660;2022-07-23T16:05:09;44.10;1.00
3778;DHT22;1904;50.076;8.660;2022-07-23T16:08:04;43.90;1.00
3778;DHT22;1904;50.076;8.660;2022-07-23T16:10:45;44.60;1.00
3778;DHT22;1904;50.076;8.660;2022-07-23T16:13:11;44.70;1.00
3778;DHT22;1904;50.076;8.660;2022-07-23T16:15:37;44.70;1.00
3778;DHT22;1904;50.076;8.660;2022-07-23T16:18:03;44.30;1.00
3778;DHT22;1904;50.076;8.660;2022-07-23T16:20:39;43.90;1.00
3778;DHT22;1904;50.076;8.660;2022-07-23T16:23:16;42.70;1.00
3778;DHT22;1904;50.076;8.660;2022-07-23T16:26:03;42.20;1.00
3778;DHT22;1904;50.076;8.660;2022-07-23T16:28:40;42.20;1.00
3778;DHT22;1904;50.076;8.660;2022-07-23T16:31:10;42.40;1.00
3778;DHT22;1904;50.076;8.660;2022-07-23T16:33:45;42.30;1.00
3778;DHT22;1904;50.076;8.660;2022-07-23T16:36:45;42.20;1.00
3778;DHT22;1904;50.076;8.660;2022-07-23T16:39:15;41.80;1.00
3778;DHT22;1904;50.076;8.660;2022-07-23T16:41:45;40.90;1.00
3778;DHT22;1904;50.076;8.660;2022-07-23T16:47:21;40.50;1.00
3778;DHT22;1904;50.076;8.660;2022-07-23T16:50:21;40.40;1.00
3778;DHT22;1904;50.076;8.660;2022-07-23T16:52:46;41.10;1.00
3778;DHT22;1904;50.076;8.660;2022-07-23T16:55:45;41.40;1.00
3778;DHT22;1904;50.076;8.660;2022-07-23T16:58:11;41.30;1.00
3778;DHT22;1904;50.076;8.660;2022-07-23T17:00:45;41.70;1.00
3778;DHT22;1904;50.076;8.660;2022-07-23T17:03:45;41.80;1.00
3778;DHT22;1904;50.076;8.660;2022-07-23T17:06:15;41.40;1.00
3778;DHT22;1904;50.076;8.660;2022-07-23T17:08:45;41.00;1.00
3778;DHT22;1904;50.076;8.660;2022-07-23T17:11:11;40.60;1.00
3778;DHT22;1904;50.076;8.660;2022-07-23T17:13:39;40.20;1.00
3778;DHT22;1904;50.076;8.660;2022-07-23T17:16:09;39.60;1.00
3778;DHT22;1904;50.076;8.660;2022-07-23T17:18:39;39.00;1.00
3778;DHT22;1904;50.076;8.660;2022-07-23T17:21:09;38.60;1.00
3778;DHT22;1904;50.076;8.660;2022-07-23T17:23:35;38.20;1.00
3778;DHT22;1904;50.076;8.660;2022-07-23T17:26:03;38.00;1.00
3778;DHT22;1904;50.076;8.660;2022-07-23T17:28:33;37.40;1.00
3778;DHT22;1904;50.076;8.660;2022-07-23T17:31:03;36.90;1.00
3778;DHT22;1904;50.076;8.660;2022-07-23T17:33:39;36.30;1.00
3778;DHT22;1904;50.076;8.660;2022-07-23T17:36:15;35.80;1.00
3778;DHT22;1904;50.076;8.660;2022-07-23T17:38:45;35.30;1.00
3778;DHT22;1904;50.076;8.660;2022-07-23T17:41:33;34.80;1.00
3778;DHT22;1904;50.076;8.660;2022-07-23T17:44:03;34.20;1.00
3778;DHT22;1904;50.076;8.660;2022-07-23T17:46:29;33.60;1.00
3778;DHT22;1904;50.076;8.660;2022-07-23T17:55:45;32.30;1.00
3778;DHT22;1904;50.076;8.660;2022-07-23T17:58:27;31.80;1.00
3778;DHT22;1904;50.076;8.660;2022-07-23T18:01:21;31.50;1.00
3778;DHT22;1904;50.076;8.660;2022-07-23T18:03:51;31.20;1.00
3778;DHT22;1904;50.076;8.660;2022-07-23T18:06:21;31.00;1.00
3778;DHT22;1904;50.076;8.660;2022-07-23T18:08:51;30.60;1.00
3778;DHT22;1904;50.076;8.660;2022-07-23T18:21:45;29.80;1.00
3778;DHT22;1904;50.076;8.660;2022-07-23T18:24:10;29.60;1.00
3778;DHT22;1904;50.076;8.660;2022-07-23T18:33:04;29.10;1.00
3778;DHT22;1904;50.076;8.660;2022-07-23T18:39:09;28.70;1.00
3778;DHT22;1904;50.076;8.660;2022-07-23T18:41:45;28.50;1.00
3778;DHT22;1904;50.076;8.660;2022-07-23T18:47:45;28.10;1.00
3778;DHT22;1904;50.076;8.660;2022-07-23T18:56:54;27.50;1.00
3778;DHT22;1904;50.076;8.660;2022-07-23T18:59:21;27.30;1.00
3778;DHT22;1904;50.076;8.660;2022-07-23T19:01:47;27.20;1.00
3778;DHT22;1904;50.076;8.660;2022-07-23T19:04:27;27.00;1.00
3778;DHT22;1904;50.076;8.660;2022-07-23T19:06:53;26.90;1.00
3778;DHT22;1904;50.076;8.660;2022-07-23T19:09:39;26.70;1.00
3778;DHT22;1904;50.076;8.660;2022-07-23T19:12:09;26.50;1.00
3778;DHT22;1904;50.076;8.660;2022-07-23T19:14:36;26.40;1.00
3778;DHT22;1904;50.076;8.660;2022-07-23T19:17:02;26.20;1.00
3778;DHT22;1904;50.076;8.660;2022-07-23T19:20:04;26.00;1.00
3778;DHT22;1904;50.076;8.660;2022-07-23T19:22:57;25.90;1.00
3778;DHT22;1904;50.076;8.660;2022-07-23T19:32:06;25.40;1.00
3778;DHT22;1904;50.076;8.660;2022-07-23T19:34:32;25.30;1.00